createdAt,value
2016-09-07T00:00:46.697Z,0
2016-09-07T00:01:46.712Z,0
2016-09-07T00:02:46.400Z,0
2016-09-07T00:03:46.946Z,0
2016-09-07T00:04:46.415Z,0
2016-09-07T00:05:46.431Z,0
2016-09-07T00:06:46.792Z,0
2016-09-07T00:07:45.812Z,0
2016-09-07T00:08:45.816Z,0
2016-09-07T00:09:46.451Z,0
2016-09-07T00:10:46.794Z,0
2016-09-07T00:11:46.158Z,0
2016-09-07T00:12:46.367Z,0
2016-09-07T00:13:46.486Z,0
2016-09-07T00:14:47.693Z,0
2016-09-07T00:15:46.186Z,0
2016-09-07T00:16:46.193Z,0
2016-09-07T00:17:46.202Z,0
2016-09-07T00:18:46.207Z,0
2016-09-07T00:19:46.524Z,0
2016-09-07T00:20:46.536Z,0
2016-09-07T00:21:46.554Z,0
2016-09-07T00:22:46.860Z,0
2016-09-07T00:23:46.870Z,0
2016-09-07T00:24:46.566Z,0
2016-09-07T00:25:47.207Z,0
2016-09-07T00:26:45.952Z,0
2016-09-07T00:27:46.590Z,0
2016-09-07T00:28:46.279Z,0
2016-09-07T00:29:46.912Z,0
2016-09-07T00:30:46.607Z,0
2016-09-07T00:31:46.621Z,0
2016-09-07T00:32:46.936Z,0
2016-09-07T00:33:46.629Z,0
2016-09-07T00:34:46.635Z,0
2016-09-07T00:35:46.328Z,0
2016-09-07T00:36:47.533Z,0
2016-09-07T00:37:46.346Z,0
2016-09-07T00:38:46.348Z,0
2016-09-07T00:39:46.365Z,0
2016-09-07T00:40:46.779Z,0
2016-09-07T00:41:46.685Z,0
2016-09-07T00:42:46.377Z,0
2016-09-07T00:43:46.702Z,0
2016-09-07T00:44:46.446Z,0
2016-09-07T00:45:47.584Z,0
2016-09-07T00:46:46.724Z,0
2016-09-07T00:47:46.916Z,0
2016-09-07T00:48:46.738Z,0
2016-09-07T00:49:48.030Z,0
2016-09-07T00:50:47.074Z,0
2016-09-07T00:51:46.444Z,0
2016-09-07T00:52:46.141Z,0
2016-09-07T00:53:46.461Z,0
2016-09-07T00:54:46.466Z,0
2016-09-07T00:55:46.795Z,0
2016-09-07T00:56:48.111Z,0
2016-09-07T00:57:46.800Z,0
2016-09-07T00:58:47.460Z,0
2016-09-07T00:59:46.551Z,0
2016-09-07T01:00:48.795Z,0
2016-09-07T01:01:46.209Z,0
2016-09-07T01:02:46.834Z,0
2016-09-07T01:03:46.851Z,0
2016-09-07T01:04:46.540Z,0
2016-09-07T01:05:46.857Z,0
2016-09-07T01:06:47.195Z,0
2016-09-07T01:07:47.235Z,0
2016-09-07T01:08:46.883Z,0
2016-09-07T01:09:46.872Z,0
2016-09-07T01:10:46.897Z,0
2016-09-07T01:11:48.502Z,0
2016-09-07T01:12:46.597Z,0
2016-09-07T01:13:46.609Z,0
2016-09-07T01:14:46.608Z,0
2016-09-07T01:15:46.618Z,0
2016-09-07T01:16:46.628Z,0
2016-09-07T01:17:46.631Z,0
2016-09-07T01:18:46.957Z,0
2016-09-07T01:19:46.969Z,0
2016-09-07T01:20:47.157Z,0
2016-09-07T01:21:46.971Z,0
2016-09-07T01:22:48.612Z,0
2016-09-07T01:23:46.689Z,0
2016-09-07T01:24:47.313Z,0
2016-09-07T01:25:46.380Z,0
2016-09-07T01:26:47.321Z,0
2016-09-07T01:27:47.335Z,0
2016-09-07T01:28:47.027Z,0
2016-09-07T01:29:46.724Z,0
2016-09-07T01:30:46.418Z,0
2016-09-07T01:31:46.737Z,0
2016-09-07T01:32:46.742Z,0
2016-09-07T01:33:48.299Z,0
2016-09-07T01:34:46.753Z,0
2016-09-07T01:35:47.113Z,0
2016-09-07T01:36:46.767Z,0
2016-09-07T01:37:47.405Z,0
2016-09-07T01:38:46.468Z,0
2016-09-07T01:39:47.107Z,0
2016-09-07T01:40:46.797Z,0
2016-09-07T01:41:46.805Z,0
2016-09-07T01:42:47.124Z,0
2016-09-07T01:43:47.501Z,0
2016-09-07T01:44:48.091Z,0
2016-09-07T01:45:47.460Z,0
2016-09-07T01:46:47.472Z,0
2016-09-07T01:47:46.854Z,0
2016-09-07T01:48:47.168Z,0
2016-09-07T01:49:47.186Z,0
2016-09-07T01:50:47.501Z,0
2016-09-07T01:51:47.192Z,0
2016-09-07T01:52:47.507Z,0
2016-09-07T01:53:46.894Z,0
2016-09-07T01:54:46.902Z,0
2016-09-07T01:55:47.673Z,0
2016-09-07T01:56:47.243Z,0
2016-09-07T01:57:46.923Z,0
2016-09-07T01:58:47.245Z,0
2016-09-07T01:59:47.609Z,0
2016-09-07T02:00:46.945Z,0
2016-09-07T02:01:46.953Z,0
2016-09-07T02:02:47.279Z,0
2016-09-07T02:03:46.974Z,0
2016-09-07T02:04:47.286Z,0
2016-09-07T02:05:47.296Z,0
2016-09-07T02:06:47.539Z,0
2016-09-07T02:07:47.311Z,0
2016-09-07T02:08:48.873Z,0
2016-09-07T02:09:47.008Z,0
2016-09-07T02:10:47.332Z,0
2016-09-07T02:11:47.033Z,0
2016-09-07T02:12:47.044Z,0
2016-09-07T02:13:47.717Z,0
2016-09-07T02:14:47.359Z,0
2016-09-07T02:15:47.370Z,0
2016-09-07T02:16:47.373Z,0
2016-09-07T02:17:47.693Z,0
2016-09-07T02:18:47.128Z,0
2016-09-07T02:19:48.599Z,0
2016-09-07T02:20:47.092Z,0
2016-09-07T02:21:47.495Z,0
2016-09-07T02:22:47.734Z,0
2016-09-07T02:23:46.802Z,0
2016-09-07T02:24:47.433Z,0
2016-09-07T02:25:47.122Z,0
2016-09-07T02:26:47.757Z,0
2016-09-07T02:27:47.765Z,0
2016-09-07T02:28:47.459Z,0
2016-09-07T02:29:47.154Z,0
2016-09-07T02:30:48.386Z,0
2016-09-07T02:31:46.854Z,0
2016-09-07T02:32:47.175Z,0
2016-09-07T02:33:46.870Z,0
2016-09-07T02:34:47.503Z,0
2016-09-07T02:35:47.200Z,0
2016-09-07T02:36:47.829Z,0
2016-09-07T02:37:47.212Z,0
2016-09-07T02:38:47.530Z,0
2016-09-07T02:39:47.230Z,0
2016-09-07T02:40:47.232Z,0
2016-09-07T02:41:47.930Z,0
2016-09-07T02:42:47.559Z,0
2016-09-07T02:43:47.577Z,0
2016-09-07T02:44:47.887Z,0
2016-09-07T02:45:47.273Z,0
2016-09-07T02:46:47.638Z,0
2016-09-07T02:47:47.645Z,0
2016-09-07T02:48:47.286Z,0
2016-09-07T02:49:47.297Z,0
2016-09-07T02:50:47.315Z,0
2016-09-07T02:51:47.311Z,0
2016-09-07T02:52:48.162Z,0
2016-09-07T02:53:47.657Z,0
2016-09-07T02:54:49.481Z,0
2016-09-07T02:55:47.656Z,0
2016-09-07T02:56:47.659Z,0
2016-09-07T02:57:47.348Z,0
2016-09-07T02:58:47.679Z,0
2016-09-07T02:59:47.681Z,0
2016-09-07T03:00:47.060Z,0
2016-09-07T03:01:47.696Z,0
2016-09-07T03:02:48.017Z,0
2016-09-07T03:03:47.898Z,0
2016-09-07T03:04:47.713Z,0
2016-09-07T03:05:47.413Z,0
2016-09-07T03:06:47.108Z,0
2016-09-07T03:07:48.652Z,0
2016-09-07T03:08:48.061Z,0
2016-09-07T03:09:47.129Z,0
2016-09-07T03:10:48.076Z,0
2016-09-07T03:11:47.766Z,0
2016-09-07T03:12:47.779Z,0
2016-09-07T03:13:47.569Z,0
2016-09-07T03:14:47.787Z,0
2016-09-07T03:15:47.798Z,0
2016-09-07T03:16:49.497Z,0
2016-09-07T03:17:47.513Z,0
2016-09-07T03:18:47.909Z,0
2016-09-07T03:19:48.193Z,0
2016-09-07T03:20:48.144Z,0
2016-09-07T03:21:47.840Z,0
2016-09-07T03:22:47.225Z,0
2016-09-07T03:23:47.544Z,0
2016-09-07T03:24:47.239Z,0
2016-09-07T03:25:47.868Z,0
2016-09-07T03:26:47.883Z,0
2016-09-07T03:27:48.789Z,0
2016-09-07T03:28:47.577Z,0
2016-09-07T03:29:47.984Z,0
2016-09-07T03:30:47.917Z,0
2016-09-07T03:31:47.915Z,0
2016-09-07T03:32:47.919Z,0
2016-09-07T03:33:47.927Z,0
2016-09-07T03:34:47.620Z,0
2016-09-07T03:35:48.256Z,0
2016-09-07T03:36:47.959Z,0
2016-09-07T03:37:47.644Z,0
2016-09-07T03:38:48.822Z,0
2016-09-07T03:39:48.284Z,0
2016-09-07T03:40:48.285Z,0
2016-09-07T03:41:47.984Z,0
2016-09-07T03:42:48.305Z,0
2016-09-07T03:43:47.683Z,0
2016-09-07T03:44:47.694Z,0
2016-09-07T03:45:48.324Z,0
2016-09-07T03:46:47.718Z,0
2016-09-07T03:47:48.335Z,0
2016-09-07T03:48:47.465Z,0
2016-09-07T03:49:48.600Z,0
2016-09-07T03:50:47.736Z,0
2016-09-07T03:52:48.068Z,0
2016-09-07T03:53:48.867Z,0
2016-09-07T03:54:48.075Z,0
2016-09-07T03:55:48.084Z,0
2016-09-07T03:56:48.402Z,0
2016-09-07T03:57:48.109Z,0
2016-09-07T03:58:48.103Z,0
2016-09-07T03:59:48.112Z,0
2016-09-07T04:00:48.437Z,0
2016-09-07T04:01:47.816Z,0
2016-09-07T04:02:49.756Z,0
2016-09-07T04:03:47.832Z,0
2016-09-07T04:04:48.184Z,0
2016-09-07T04:05:47.842Z,0
2016-09-07T04:06:48.159Z,0
2016-09-07T04:07:48.482Z,0
2016-09-07T04:08:47.545Z,0
2016-09-07T04:09:48.497Z,0
2016-09-07T04:10:48.191Z,0
2016-09-07T04:11:48.208Z,0
2016-09-07T04:12:48.523Z,0
2016-09-07T04:13:49.260Z,0
2016-09-07T04:14:47.907Z,0
2016-09-07T04:15:48.553Z,0
2016-09-07T04:16:48.556Z,0
2016-09-07T04:17:47.926Z,0
2016-09-07T04:18:47.936Z,0
2016-09-07T04:19:48.306Z,0
2016-09-07T04:20:47.742Z,0
2016-09-07T04:21:48.271Z,0
2016-09-07T04:22:47.966Z,0
2016-09-07T04:23:47.663Z,4
2016-09-07T04:24:49.596Z,4
2016-09-07T04:25:48.621Z,0
2016-09-07T04:26:48.356Z,0
2016-09-07T04:27:48.000Z,0
2016-09-07T04:28:48.326Z,4
2016-09-07T04:29:48.336Z,0
2016-09-07T04:30:48.018Z,0
2016-09-07T04:31:48.348Z,4
2016-09-07T04:32:48.035Z,4
2016-09-07T04:33:48.359Z,4
2016-09-07T04:34:48.059Z,8
2016-09-07T04:35:48.860Z,4
2016-09-07T04:36:48.064Z,8
2016-09-07T04:37:48.389Z,12
2016-09-07T04:38:48.390Z,12
2016-09-07T04:39:48.085Z,12
2016-09-07T04:40:48.406Z,16
2016-09-07T04:41:48.097Z,16
2016-09-07T04:42:48.733Z,20
2016-09-07T04:43:48.746Z,20
2016-09-07T04:44:48.129Z,24
2016-09-07T04:45:48.443Z,32
2016-09-07T04:46:48.700Z,32
2016-09-07T04:47:48.457Z,36
2016-09-07T04:48:48.203Z,40
2016-09-07T04:49:48.477Z,44
2016-09-07T04:50:48.868Z,48
2016-09-07T04:51:48.486Z,52
2016-09-07T04:52:48.488Z,56
2016-09-07T04:53:48.809Z,60
2016-09-07T04:54:48.502Z,64
2016-09-07T04:55:48.826Z,72
2016-09-07T04:56:48.518Z,80
2016-09-07T04:57:48.840Z,88
2016-09-07T04:58:48.535Z,100
2016-09-07T04:59:49.732Z,108
2016-09-07T05:00:48.554Z,120
2016-09-07T05:01:48.905Z,128
2016-09-07T05:02:47.939Z,144
2016-09-07T05:03:48.567Z,156
2016-09-07T05:04:48.889Z,172
2016-09-07T05:05:48.685Z,188
2016-09-07T05:06:48.905Z,204
2016-09-07T05:07:48.912Z,220
2016-09-07T05:08:48.607Z,240
2016-09-07T05:09:48.298Z,260
2016-09-07T05:10:49.955Z,284
2016-09-07T05:11:48.628Z,304
2016-09-07T05:12:48.782Z,324
2016-09-07T05:13:48.330Z,340
2016-09-07T05:14:48.332Z,356
2016-09-07T05:15:48.653Z,372
2016-09-07T05:16:48.972Z,392
2016-09-07T05:17:48.986Z,404
2016-09-07T05:18:48.366Z,424
2016-09-07T05:19:48.377Z,432
2016-09-07T05:20:48.702Z,448
2016-09-07T05:21:49.256Z,460
2016-09-07T05:22:48.442Z,464
2016-09-07T05:23:48.503Z,480
2016-09-07T05:24:48.411Z,492
2016-09-07T05:25:49.775Z,504
2016-09-07T05:26:48.734Z,512
2016-09-07T05:27:48.743Z,520
2016-09-07T05:28:48.437Z,532
2016-09-07T05:29:48.758Z,544
2016-09-07T05:30:48.448Z,556
2016-09-07T05:31:48.147Z,568
2016-09-07T05:32:49.068Z,584
2016-09-07T05:33:49.096Z,600
2016-09-07T05:34:48.164Z,624
2016-09-07T05:35:48.812Z,640
2016-09-07T05:36:49.406Z,652
2016-09-07T05:37:48.862Z,660
2016-09-07T05:38:49.138Z,668
2016-09-07T05:39:48.515Z,684
2016-09-07T05:40:48.518Z,708
2016-09-07T05:41:49.155Z,732
2016-09-07T05:42:48.845Z,740
2016-09-07T05:43:48.544Z,748
2016-09-07T05:44:48.554Z,756
2016-09-07T05:45:50.385Z,768
2016-09-07T05:46:48.878Z,788
2016-09-07T05:47:49.541Z,804
2016-09-07T05:48:49.205Z,832
2016-09-07T05:49:48.586Z,856
2016-09-07T05:50:49.004Z,900
2016-09-07T05:51:48.601Z,1036
2016-09-07T05:52:48.658Z,1192
2016-09-07T05:53:49.236Z,1460
2016-09-07T05:54:48.931Z,1628
2016-09-07T05:55:49.255Z,1388
2016-09-07T05:56:48.644Z,1080
2016-09-07T05:57:48.647Z,1168
2016-09-07T05:58:49.556Z,1112
2016-09-07T05:59:48.969Z,1232
2016-09-07T06:00:49.289Z,1180
2016-09-07T06:01:48.985Z,944
2016-09-07T06:02:48.417Z,948
2016-09-07T06:03:48.999Z,1112
2016-09-07T06:04:49.326Z,1056
2016-09-07T06:05:49.014Z,976
2016-09-07T06:06:49.336Z,1012
2016-09-07T06:07:50.166Z,1080
2016-09-07T06:08:48.462Z,1016
2016-09-07T06:09:49.332Z,1024
2016-09-07T06:10:49.054Z,996
2016-09-07T06:11:49.057Z,1028
2016-09-07T06:12:49.064Z,1032
2016-09-07T06:13:48.450Z,1028
2016-09-07T06:14:49.140Z,1072
2016-09-07T06:15:48.826Z,1220
2016-09-07T06:16:49.093Z,1212
2016-09-07T06:17:48.789Z,1276
2016-09-07T06:18:49.797Z,1288
2016-09-07T06:19:49.432Z,1164
2016-09-07T06:20:49.213Z,1256
2016-09-07T06:21:49.134Z,1376
2016-09-07T06:22:50.551Z,1680
2016-09-07T06:23:49.456Z,1668
2016-09-07T06:24:49.517Z,1748
2016-09-07T06:25:48.850Z,2060
2016-09-07T06:26:49.168Z,2980
2016-09-07T06:27:48.551Z,2484
2016-09-07T06:28:49.494Z,1452
2016-09-07T06:29:49.578Z,1476
2016-09-07T06:30:48.898Z,1720
2016-09-07T06:31:49.205Z,1964
2016-09-07T06:32:48.900Z,3232
2016-09-07T06:33:50.825Z,5592
2016-09-07T06:34:49.228Z,5360
2016-09-07T06:35:49.551Z,3108
2016-09-07T06:36:48.929Z,2788
2016-09-07T06:37:49.252Z,3056
2016-09-07T06:38:49.266Z,5736
2016-09-07T06:39:48.956Z,8584
2016-09-07T06:40:49.279Z,10328
2016-09-07T06:41:48.968Z,12676
2016-09-07T06:42:49.340Z,13696
2016-09-07T06:43:48.981Z,13024
2016-09-07T06:44:50.505Z,12820
2016-09-07T06:45:49.319Z,12744
2016-09-07T06:46:49.326Z,9096
2016-09-07T06:47:49.646Z,3716
2016-09-07T06:48:49.339Z,1800
2016-09-07T06:49:49.039Z,1516
2016-09-07T06:50:49.721Z,1416
2016-09-07T06:51:49.054Z,1408
2016-09-07T06:52:49.742Z,1412
2016-09-07T06:53:49.374Z,1424
2016-09-07T06:54:49.705Z,1436
2016-09-07T06:55:50.700Z,1452
2016-09-07T06:57:04.287Z,1472
2016-09-07T06:57:49.727Z,1484
2016-09-07T06:58:49.124Z,1496
2016-09-07T06:59:49.114Z,1516
2016-09-07T07:00:49.177Z,1532
2016-09-07T07:01:49.761Z,1544
2016-09-07T07:02:49.198Z,1560
2016-09-07T07:03:49.464Z,1572
2016-09-07T07:04:50.765Z,1588
2016-09-07T07:05:49.482Z,1600
2016-09-07T07:06:50.140Z,1616
2016-09-07T07:07:49.184Z,1628
2016-09-07T07:08:49.239Z,1676
2016-09-07T07:09:49.518Z,1660
2016-09-07T07:10:49.518Z,1680
2016-09-07T07:11:49.841Z,1680
2016-09-07T07:12:49.854Z,1676
2016-09-07T07:13:49.229Z,1668
2016-09-07T07:14:49.608Z,1660
2016-09-07T07:15:49.615Z,1652
2016-09-07T07:16:49.255Z,1652
2016-09-07T07:17:50.362Z,1648
2016-09-07T07:18:49.685Z,1636
2016-09-07T07:19:49.584Z,1620
2016-09-07T07:20:49.286Z,1628
2016-09-07T07:21:49.302Z,1620
2016-09-07T07:22:49.609Z,1600
2016-09-07T07:23:49.940Z,1616
2016-09-07T07:24:49.940Z,1628
2016-09-07T07:25:49.325Z,1612
2016-09-07T07:26:49.641Z,1588
2016-09-07T07:27:49.699Z,1556
2016-09-07T07:28:49.745Z,1524
2016-09-07T07:29:49.668Z,1496
2016-09-07T07:30:51.015Z,1472
2016-09-07T07:31:49.371Z,1464
2016-09-07T07:32:49.426Z,1448
2016-09-07T07:33:49.700Z,1444
2016-09-07T07:34:49.407Z,1432
2016-09-07T07:35:49.716Z,1408
2016-09-07T07:36:49.406Z,1380
2016-09-07T07:37:50.093Z,1344
2016-09-07T07:38:49.736Z,1320
2016-09-07T07:39:50.055Z,1292
2016-09-07T07:40:49.442Z,1276
2016-09-07T07:41:51.336Z,1276
2016-09-07T07:42:49.455Z,1280
2016-09-07T07:43:49.768Z,1280
2016-09-07T07:44:49.468Z,1276
2016-09-07T07:45:50.101Z,1272
2016-09-07T07:46:49.864Z,1260
2016-09-07T07:47:49.799Z,1256
2016-09-07T07:48:49.814Z,1244
2016-09-07T07:49:49.509Z,1228
2016-09-07T07:50:50.134Z,1220
2016-09-07T07:51:50.146Z,1220
2016-09-07T07:52:50.877Z,1220
2016-09-07T07:53:49.584Z,1224
2016-09-07T07:54:50.056Z,1228
2016-09-07T07:55:49.866Z,1228
2016-09-07T07:56:49.917Z,1244
2016-09-07T07:57:49.612Z,1264
2016-09-07T07:58:49.884Z,1276
2016-09-07T07:59:49.577Z,1284
2016-09-07T08:00:49.899Z,1288
2016-09-07T08:01:49.903Z,1292
2016-09-07T08:02:49.917Z,1296
2016-09-07T08:03:51.183Z,1300
2016-09-07T08:04:49.982Z,1312
2016-09-07T08:05:49.822Z,1320
2016-09-07T08:06:50.258Z,1324
2016-09-07T08:07:49.640Z,1332
2016-09-07T08:08:50.430Z,1340
2016-09-07T08:09:49.390Z,1344
2016-09-07T08:10:49.988Z,1364
2016-09-07T08:11:50.531Z,1376
2016-09-07T08:12:50.042Z,1376
2016-09-07T08:13:50.044Z,1384
2016-09-07T08:14:50.554Z,1416
2016-09-07T08:15:50.011Z,1444
2016-09-07T08:16:50.021Z,1476
2016-09-07T08:17:50.028Z,1520
2016-09-07T08:18:50.349Z,1540
2016-09-07T08:19:50.043Z,1592
2016-09-07T08:20:50.048Z,1640
2016-09-07T08:21:49.745Z,1708
2016-09-07T08:22:49.751Z,1812
2016-09-07T08:23:50.076Z,2024
2016-09-07T08:24:50.082Z,2640
2016-09-07T08:25:50.688Z,14236
2016-09-07T08:26:50.094Z,32416
2016-09-07T08:27:50.098Z,37664
2016-09-07T08:28:50.423Z,38752
2016-09-07T08:29:50.116Z,40928
2016-09-07T08:30:50.563Z,41600
2016-09-07T08:31:50.135Z,42112
2016-09-07T08:32:50.149Z,42016
2016-09-07T08:33:50.464Z,41440
2016-09-07T08:34:49.911Z,37824
2016-09-07T08:35:49.551Z,37568
2016-09-07T08:36:50.479Z,38560
2016-09-07T08:37:50.501Z,28352
2016-09-07T08:38:51.517Z,11792
2016-09-07T08:39:50.522Z,4112
2016-09-07T08:40:50.714Z,3524
2016-09-07T08:41:50.228Z,3232
2016-09-07T08:42:50.235Z,3048
2016-09-07T08:43:49.929Z,2896
2016-09-07T08:44:49.625Z,2896
2016-09-07T08:45:50.266Z,2832
2016-09-07T08:46:50.266Z,2764
2016-09-07T08:47:50.018Z,2800
2016-09-07T08:48:50.649Z,2744
2016-09-07T08:49:51.601Z,2676
2016-09-07T08:50:50.357Z,2696
2016-09-07T08:51:50.451Z,2688
2016-09-07T08:52:50.633Z,2624
2016-09-07T08:53:50.327Z,2504
2016-09-07T08:54:50.650Z,2336
2016-09-07T08:55:50.887Z,2408
2016-09-07T08:56:50.369Z,2424
2016-09-07T08:57:50.510Z,2404
2016-09-07T08:58:50.060Z,2420
2016-09-07T08:59:50.066Z,2364
2016-09-07T09:00:51.270Z,2324
2016-09-07T09:01:50.082Z,2284
2016-09-07T09:02:50.507Z,2236
2016-09-07T09:03:50.725Z,2184
2016-09-07T09:04:50.420Z,2116
2016-09-07T09:05:50.481Z,2096
2016-09-07T09:06:50.534Z,2140
2016-09-07T09:07:50.499Z,2116
2016-09-07T09:08:50.239Z,2148
2016-09-07T09:09:50.568Z,2152
2016-09-07T09:10:50.206Z,2132
2016-09-07T09:11:51.266Z,2108
2016-09-07T09:12:50.485Z,2072
2016-09-07T09:13:50.284Z,2080
2016-09-07T09:14:50.965Z,2084
2016-09-07T09:15:50.207Z,2080
2016-09-07T09:16:50.521Z,2108
2016-09-07T09:17:50.525Z,2124
2016-09-07T09:18:50.222Z,2120
2016-09-07T09:19:50.233Z,2132
2016-09-07T09:20:50.547Z,2108
2016-09-07T09:21:50.874Z,2120
2016-09-07T09:22:51.014Z,2108
2016-09-07T09:23:50.889Z,2068
2016-09-07T09:24:52.417Z,2056
2016-09-07T09:25:50.906Z,2008
2016-09-07T09:26:51.302Z,1924
2016-09-07T09:27:49.985Z,1904
2016-09-07T09:28:50.934Z,1928
2016-09-07T09:29:50.316Z,1960
2016-09-07T09:30:50.321Z,1940
2016-09-07T09:31:50.026Z,1916
2016-09-07T09:32:50.696Z,1908
2016-09-07T09:33:50.759Z,1892
2016-09-07T09:34:50.713Z,1876
2016-09-07T09:35:52.461Z,1900
2016-09-07T09:36:50.366Z,1900
2016-09-07T09:37:50.930Z,1952
2016-09-07T09:38:51.009Z,1964
2016-09-07T09:39:50.444Z,1948
2016-09-07T09:40:50.412Z,1936
2016-09-07T09:41:50.411Z,1924
2016-09-07T09:42:50.732Z,1920
2016-09-07T09:43:50.427Z,1928
2016-09-07T09:44:50.441Z,1920
2016-09-07T09:45:51.070Z,1896
2016-09-07T09:46:52.099Z,1884
2016-09-07T09:47:50.461Z,1880
2016-09-07T09:48:51.395Z,1876
2016-09-07T09:49:51.097Z,1884
2016-09-07T09:50:51.113Z,1868
2016-09-07T09:51:50.802Z,1848
2016-09-07T09:52:50.858Z,1836
2016-09-07T09:53:50.507Z,1800
2016-09-07T09:54:50.564Z,1792
2016-09-07T09:55:51.160Z,1796
2016-09-07T09:56:50.844Z,1796
2016-09-07T09:57:50.596Z,1816
2016-09-07T09:58:50.239Z,1808
2016-09-07T09:59:50.858Z,1796
2016-09-07T10:00:50.563Z,1804
2016-09-07T10:01:50.307Z,1788
2016-09-07T10:02:50.894Z,1788
2016-09-07T10:03:51.210Z,1784
2016-09-07T10:04:50.278Z,1760
2016-09-07T10:05:50.603Z,1768
2016-09-07T10:06:51.240Z,1768
2016-09-07T10:07:50.622Z,1744
2016-09-07T10:08:52.057Z,1732
2016-09-07T10:09:50.949Z,1708
2016-09-07T10:10:50.995Z,1704
2016-09-07T10:11:50.750Z,1712
2016-09-07T10:12:50.654Z,1700
2016-09-07T10:13:50.990Z,1696
2016-09-07T10:14:50.985Z,1684
2016-09-07T10:15:50.370Z,1680
2016-09-07T10:16:51.002Z,1688
2016-09-07T10:17:50.701Z,1676
2016-09-07T10:18:51.016Z,1672
2016-09-07T10:19:51.930Z,1660
2016-09-07T10:20:51.038Z,1644
2016-09-07T10:21:51.100Z,1636
2016-09-07T10:22:50.740Z,1620
2016-09-07T10:23:52.425Z,1616
2016-09-07T10:24:50.758Z,1600
2016-09-07T10:25:50.764Z,1588
2016-09-07T10:26:50.771Z,1572
2016-09-07T10:27:51.091Z,1564
2016-09-07T10:28:50.793Z,1556
2016-09-07T10:29:50.795Z,1532
2016-09-07T10:30:51.254Z,1492
2016-09-07T10:31:51.178Z,1508
2016-09-07T10:32:50.814Z,1500
2016-09-07T10:33:51.138Z,1476
2016-09-07T10:34:52.205Z,1468
2016-09-07T10:35:50.848Z,1476
2016-09-07T10:36:51.157Z,1472
2016-09-07T10:37:51.218Z,1452
2016-09-07T10:38:51.174Z,1444
2016-09-07T10:39:51.496Z,1428
2016-09-07T10:40:51.519Z,1368
2016-09-07T10:41:51.518Z,1316
2016-09-07T10:42:51.216Z,1332
2016-09-07T10:43:50.908Z,1396
2016-09-07T10:44:51.593Z,1392
2016-09-07T10:45:51.942Z,1384
2016-09-07T10:46:50.976Z,1360
2016-09-07T10:47:51.306Z,1388
2016-09-07T10:48:51.569Z,1408
2016-09-07T10:49:50.639Z,1416
2016-09-07T10:50:50.961Z,1424
2016-09-07T10:51:51.600Z,1432
2016-09-07T10:52:51.654Z,1420
2016-09-07T10:53:50.986Z,1416
2016-09-07T10:54:52.633Z,1404
2016-09-07T10:55:51.016Z,1400
2016-09-07T10:56:51.861Z,1384
2016-09-07T10:57:52.427Z,1388
2016-09-07T10:58:51.436Z,1368
2016-09-07T10:59:51.080Z,1372
2016-09-07T11:00:51.757Z,1364
2016-09-07T11:01:51.678Z,1360
2016-09-07T11:02:51.060Z,1348
2016-09-07T11:03:51.388Z,1332
2016-09-07T11:04:51.392Z,1320
2016-09-07T11:05:51.079Z,1316
2016-09-07T11:06:51.499Z,1312
2016-09-07T11:07:51.812Z,1292
2016-09-07T11:08:51.418Z,1288
2016-09-07T11:09:51.161Z,1300
2016-09-07T11:10:51.122Z,1292
2016-09-07T11:11:51.444Z,1288
2016-09-07T11:12:51.144Z,1284
2016-09-07T11:13:51.145Z,1276
2016-09-07T11:14:51.208Z,1268
2016-09-07T11:15:51.158Z,1260
2016-09-07T11:16:52.916Z,1236
2016-09-07T11:17:51.853Z,1240
2016-09-07T11:18:51.951Z,1240
2016-09-07T11:19:51.186Z,1232
2016-09-07T11:20:50.888Z,1220
2016-09-07T11:21:52.011Z,1216
2016-09-07T11:22:51.944Z,1216
2016-09-07T11:23:51.534Z,1212
2016-09-07T11:24:51.280Z,1204
2016-09-07T11:25:51.556Z,1200
2016-09-07T11:26:50.934Z,1192
2016-09-07T11:27:52.520Z,1188
2016-09-07T11:28:50.957Z,1176
2016-09-07T11:29:52.124Z,1180
2016-09-07T11:30:51.281Z,1176
2016-09-07T11:31:53.191Z,1168
2016-09-07T11:32:51.919Z,1156
2016-09-07T11:33:50.988Z,1144
2016-09-07T11:34:51.310Z,1136
2016-09-07T11:35:51.939Z,1132
2016-09-07T11:36:51.080Z,1132
2016-09-07T11:37:51.492Z,1120
2016-09-07T11:38:51.706Z,1120
2016-09-07T11:39:51.655Z,1112
2016-09-07T11:40:52.178Z,1100
2016-09-07T11:41:51.672Z,1104
2016-09-07T11:42:51.370Z,1248
2016-09-07T11:43:52.056Z,1104
2016-09-07T11:44:52.011Z,1092
2016-09-07T11:45:51.712Z,1096
2016-09-07T11:46:51.086Z,1084
2016-09-07T11:47:51.407Z,1080
2016-09-07T11:48:51.776Z,1060
2016-09-07T11:49:51.784Z,1068
2016-09-07T11:50:52.061Z,1056
2016-09-07T11:51:51.858Z,1052
2016-09-07T11:52:51.499Z,1036
2016-09-07T11:53:51.814Z,1040
2016-09-07T11:54:51.776Z,1032
2016-09-07T11:55:52.286Z,1020
2016-09-07T11:56:52.105Z,1004
2016-09-07T11:57:51.801Z,1004
2016-09-07T11:58:51.186Z,996
2016-09-07T11:59:52.134Z,996
2016-09-07T12:00:51.194Z,980
2016-09-07T12:01:51.522Z,976
2016-09-07T12:02:52.157Z,964
2016-09-07T12:03:52.175Z,956
2016-09-07T12:04:53.210Z,932
2016-09-07T12:05:51.553Z,944
2016-09-07T12:06:51.977Z,940
2016-09-07T12:07:51.879Z,936
2016-09-07T12:08:51.629Z,924
2016-09-07T12:09:51.586Z,908
2016-09-07T12:10:51.646Z,904
2016-09-07T12:11:51.604Z,900
2016-09-07T12:12:51.922Z,892
2016-09-07T12:13:51.670Z,888
2016-09-07T12:14:52.255Z,884
2016-09-07T12:15:52.938Z,876
2016-09-07T12:16:51.648Z,872
2016-09-07T12:17:52.152Z,860
2016-09-07T12:18:51.658Z,852
2016-09-07T12:19:52.081Z,852
2016-09-07T12:20:51.989Z,848
2016-09-07T12:21:52.310Z,844
2016-09-07T12:22:52.421Z,836
2016-09-07T12:23:51.702Z,836
2016-09-07T12:24:52.021Z,824
2016-09-07T12:25:52.028Z,824
2016-09-07T12:26:53.286Z,816
2016-09-07T12:27:51.730Z,816
2016-09-07T12:28:51.741Z,808
2016-09-07T12:29:52.056Z,804
2016-09-07T12:30:52.082Z,800
2016-09-07T12:31:51.764Z,792
2016-09-07T12:32:51.825Z,792
2016-09-07T12:33:52.409Z,776
2016-09-07T12:34:52.100Z,772
2016-09-07T12:35:52.108Z,772
2016-09-07T12:36:51.504Z,736
2016-09-07T12:37:52.900Z,752
2016-09-07T12:38:51.870Z,740
2016-09-07T12:39:52.195Z,732
2016-09-07T12:40:51.519Z,728
2016-09-07T12:41:51.897Z,720
2016-09-07T12:42:52.213Z,712
2016-09-07T12:43:51.861Z,712
2016-09-07T12:44:51.869Z,712
2016-09-07T12:45:52.189Z,708
2016-09-07T12:46:52.559Z,712
2016-09-07T12:47:52.257Z,712
2016-09-07T12:48:52.751Z,720
2016-09-07T12:49:52.541Z,724
2016-09-07T12:50:51.912Z,736
2016-09-07T12:51:51.925Z,736
2016-09-07T12:52:53.194Z,740
2016-09-07T12:53:52.254Z,764
2016-09-07T12:54:52.003Z,780
2016-09-07T12:55:52.687Z,804
2016-09-07T12:56:51.960Z,832
2016-09-07T12:57:52.284Z,828
2016-09-07T12:58:52.040Z,812
2016-09-07T12:59:52.806Z,816
2016-09-07T13:00:52.624Z,840
2016-09-07T13:01:54.286Z,848
2016-09-07T13:02:52.010Z,840
2016-09-07T13:03:53.104Z,804
2016-09-07T13:04:52.705Z,808
2016-09-07T13:05:52.398Z,832
2016-09-07T13:06:52.355Z,860
2016-09-07T13:07:52.367Z,856
2016-09-07T13:08:52.062Z,828
2016-09-07T13:09:51.762Z,800
2016-09-07T13:10:52.762Z,768
2016-09-07T13:11:52.442Z,772
2016-09-07T13:12:54.076Z,832
2016-09-07T13:13:52.468Z,824
2016-09-07T13:14:52.568Z,784
2016-09-07T13:15:52.430Z,728
2016-09-07T13:16:52.459Z,684
2016-09-07T13:17:52.756Z,680
2016-09-07T13:18:52.785Z,660
2016-09-07T13:19:52.140Z,652
2016-09-07T13:20:52.466Z,648
2016-09-07T13:21:52.785Z,644
2016-09-07T13:22:52.184Z,628
2016-09-07T13:23:53.954Z,628
2016-09-07T13:24:52.520Z,632
2016-09-07T13:25:52.931Z,612
2016-09-07T13:26:53.177Z,620
2016-09-07T13:27:52.834Z,632
2016-09-07T13:28:52.558Z,612
2016-09-07T13:29:51.924Z,612
2016-09-07T13:30:51.913Z,604
2016-09-07T13:31:52.236Z,604
2016-09-07T13:32:52.865Z,600
2016-09-07T13:33:51.945Z,604
2016-09-07T13:34:53.793Z,600
2016-09-07T13:35:52.894Z,604
2016-09-07T13:36:52.904Z,596
2016-09-07T13:37:52.595Z,596
2016-09-07T13:38:54.065Z,600
2016-09-07T13:39:52.299Z,600
2016-09-07T13:40:52.624Z,584
2016-09-07T13:41:52.660Z,592
2016-09-07T13:42:52.704Z,596
2016-09-07T13:43:52.379Z,592
2016-09-07T13:44:52.702Z,588
2016-09-07T13:45:53.926Z,588
2016-09-07T13:46:52.051Z,588
2016-09-07T13:47:53.047Z,584
2016-09-07T13:48:52.682Z,584
2016-09-07T13:49:52.690Z,588
2016-09-07T13:50:52.699Z,580
2016-09-07T13:51:53.028Z,580
2016-09-07T13:52:53.023Z,576
2016-09-07T13:53:52.732Z,576